Time;durP1;ratioP1;P1;durP2;ratioP2;P2;SDS_P1;SDS_P2;PMS_P1;PMS_P2;Temp;Humidity;BMP_temperature;BMP_pressure;BME280_temperature;BME280_humidity;BME280_pressure;Samples;Min_cycle;Max_cycle;Signal;HPM_P1;HPM_P2
2023/07/27 00:02:10;;;;;;;168.35;157.00;;;12.30;78.20;;;;;;6210418;22;20016;-89
2023/07/27 00:04:39;;;;;;;167.80;156.23;;;12.30;78.20;;;;;;6185825;23;20039;-89
2023/07/27 00:07:05;;;;;;;167.57;156.30;;;12.30;78.20;;;;;;6164033;22;20012;-88
2023/07/27 00:09:33;;;;;;;201.25;187.90;;;12.20;78.30;;;;;;6207242;23;20355;-89
2023/07/27 00:12:01;;;;;;;150.43;140.05;;;12.20;78.40;;;;;;6187224;23;20056;-89
2023/07/27 00:14:32;;;;;;;175.60;163.60;;;12.20;78.30;;;;;;6155479;23;20024;-89
2023/07/27 00:16:58;;;;;;;149.60;138.95;;;12.20;78.40;;;;;;6149461;23;20075;-88
2023/07/27 00:19:24;;;;;;;126.07;117.53;;;12.20;78.50;;;;;;6106503;23;20029;-89
2023/07/27 00:21:49;;;;;;;160.90;149.88;;;12.10;78.50;;;;;;6181849;23;20017;-89
2023/07/27 00:24:15;;;;;;;167.88;156.77;;;12.10;78.50;;;;;;6155754;23;20032;-89
2023/07/27 00:26:44;;;;;;;139.38;129.95;;;12.10;78.50;;;;;;6175958;23;20129;-89
2023/07/27 00:29:12;;;;;;;137.75;128.05;;;12.00;78.60;;;;;;6131031;23;20025;-89
2023/07/27 00:31:38;;;;;;;136.82;127.47;;;12.00;78.60;;;;;;6182403;23;20021;-89
2023/07/27 00:34:03;;;;;;;151.73;141.18;;;12.00;78.60;;;;;;6178780;23;20031;-89
2023/07/27 00:36:29;;;;;;;136.25;126.97;;;12.00;78.70;;;;;;6206507;23;20013;-89
2023/07/27 00:38:57;;;;;;;121.45;113.30;;;12.00;78.70;;;;;;6208095;23;20044;-90
2023/07/27 00:41:25;;;;;;;105.47;97.82;;;12.00;78.70;;;;;;6211297;23;20294;-89
2023/07/27 00:43:51;;;;;;;119.07;111.05;;;12.00;78.70;;;;;;6175182;23;20491;-90
2023/07/27 00:46:22;;;;;;;103.68;95.97;;;11.90;78.70;;;;;;6183281;23;20059;-89
2023/07/27 00:48:48;;;;;;;100.05;92.97;;;12.00;78.70;;;;;;6180714;23;20021;-89
2023/07/27 00:51:17;;;;;;;101.60;94.55;;;12.00;78.80;;;;;;6185637;23;20024;-89
2023/07/27 00:53:46;;;;;;;122.72;113.90;;;11.90;78.90;;;;;;6184669;23;20013;-89
2023/07/27 00:56:12;;;;;;;121.43;113.40;;;11.90;78.80;;;;;;6184314;23;20470;-90
2023/07/27 00:58:42;;;;;;;123.57;114.95;;;11.90;78.80;;;;;;6213704;22;20017;-89
2023/07/27 01:01:09;;;;;;;109.90;102.23;;;11.90;78.80;;;;;;6181013;23;20017;-89
2023/07/27 01:03:36;;;;;;;104.15;96.70;;;11.90;78.80;;;;;;6130800;23;20028;-89
2023/07/27 01:06:06;;;;;;;106.13;98.47;;;11.90;78.90;;;;;;6131240;23;20022;-89
2023/07/27 01:08:31;;;;;;;92.97;86.43;;;11.90;78.90;;;;;;6132201;23;20021;-89
2023/07/27 01:11:02;;;;;;;111.53;103.70;;;11.90;78.90;;;;;;6126294;23;20024;-89
2023/07/27 01:14:18;;;;;;;94.85;88.45;;;11.90;79.00;;;;;;6167965;23;20021;-89
2023/07/27 01:16:50;;;;;;;45.35;41.67;;;11.90;78.70;;;;;;6094259;23;20107;-89
2023/07/27 01:19:16;;;;;;;73.70;68.43;;;11.90;78.90;;;;;;6152899;23;20025;-89
2023/07/27 01:21:46;;;;;;;78.57;72.78;;;11.90;78.90;;;;;;6154752;23;20379;-89
2023/07/27 01:24:44;;;;;;;72.80;67.43;;;11.90;78.90;;;;;;6151143;23;20028;-88
2023/07/27 01:27:25;;;;;;;45.10;41.25;;;11.90;78.80;;;;;;6089645;23;20476;-89
2023/07/27 01:30:22;;;;;;;45.13;41.58;;;11.90;78.80;;;;;;6125981;23;20104;-89
2023/07/27 01:33:13;;;;;;;36.08;33.17;;;11.90;78.60;;;;;;6139512;23;20017;-89
2023/07/27 01:35:48;;;;;;;44.17;40.83;;;11.80;78.60;;;;;;6150375;23;20017;-88
2023/07/27 01:38:15;;;;;;;65.32;60.47;;;11.90;78.50;;;;;;6142320;23;20319;-89
2023/07/27 01:40:42;;;;;;;62.00;57.35;;;11.90;78.50;;;;;;6125273;23;20087;-89
2023/07/27 01:43:11;;;;;;;80.05;74.30;;;11.90;78.50;;;;;;6124606;23;20322;-89
2023/07/27 01:45:38;;;;;;;86.90;80.97;;;11.90;78.50;;;;;;6126347;23;20045;-89
2023/07/27 01:48:08;;;;;;;79.97;74.57;;;11.90;78.40;;;;;;6140229;23;20053;-89
2023/07/27 01:50:35;;;;;;;70.88;65.80;;;11.90;78.40;;;;;;6151030;23;20017;-89
2023/07/27 01:53:05;;;;;;;88.70;82.22;;;11.90;78.40;;;;;;6124431;23;20025;-89
2023/07/27 01:55:33;;;;;;;54.58;50.35;;;11.90;78.50;;;;;;6150267;23;20017;-89
2023/07/27 01:58:00;;;;;;;69.28;64.35;;;11.90;78.50;;;;;;6141290;23;20080;-89
2023/07/27 02:00:29;;;;;;;84.57;78.40;;;11.90;78.50;;;;;;6125745;23;20021;-89
2023/07/27 02:02:56;;;;;;;74.13;68.95;;;11.90;78.50;;;;;;6100590;23;20026;-89
2023/07/27 02:05:24;;;;;;;73.45;68.28;;;11.80;78.50;;;;;;6102090;23;20028;-89
2023/07/27 02:07:50;;;;;;;74.43;69.10;;;11.90;78.40;;;;;;6096665;23;20029;-89
2023/07/27 02:10:20;;;;;;;74.47;69.38;;;11.80;78.40;;;;;;6186624;23;20027;-89
2023/07/27 02:12:51;;;;;;;70.07;65.07;;;11.90;78.40;;;;;;6125303;23;20019;-89
2023/07/27 02:15:25;;;;;;;60.97;56.42;;;11.90;78.30;;;;;;6185835;23;20028;-89
2023/07/27 02:18:07;;;;;;;58.20;53.83;;;11.90;78.40;;;;;;6170668;23;20016;-89
2023/07/27 02:20:35;;;;;;;50.40;46.72;;;11.90;78.40;;;;;;6163488;23;20071;-89
2023/07/27 02:23:04;;;;;;;67.20;62.17;;;11.90;78.40;;;;;;6161155;23;20029;-89
2023/07/27 02:25:31;;;;;;;62.63;58.13;;;11.90;78.50;;;;;;6186987;23;20017;-89
2023/07/27 02:27:56;;;;;;;67.57;62.50;;;11.90;78.40;;;;;;6152520;23;20095;-89
2023/07/27 02:30:22;;;;;;;66.95;62.33;;;11.90;78.40;;;;;;6163492;23;20055;-89
2023/07/27 02:32:51;;;;;;;80.85;75.03;;;11.90;78.40;;;;;;6171238;23;20504;-89
2023/07/27 02:35:20;;;;;;;78.95;73.15;;;11.90;78.50;;;;;;6191937;23;20099;-90
2023/07/27 02:37:45;;;;;;;79.32;73.40;;;11.90;78.60;;;;;;6184705;23;20338;-89
2023/07/27 02:40:14;;;;;;;83.28;77.35;;;11.90;78.50;;;;;;6193249;23;20107;-90
2023/07/27 02:42:42;;;;;;;103.68;96.53;;;11.90;78.40;;;;;;6190195;23;20020;-89
2023/07/27 02:45:11;;;;;;;84.88;79.15;;;11.90;78.50;;;;;;6168098;23;20070;-89
2023/07/27 02:47:39;;;;;;;88.85;82.63;;;11.90;78.70;;;;;;6182327;23;20012;-88
2023/07/27 02:50:06;;;;;;;67.57;62.65;;;11.90;78.70;;;;;;6166767;23;20099;-89
2023/07/27 02:52:33;;;;;;;86.05;79.78;;;11.90;78.70;;;;;;6215399;23;20062;-89
2023/07/27 02:55:02;;;;;;;90.18;83.65;;;11.90;78.70;;;;;;6216510;23;20524;-89
2023/07/27 02:57:32;;;;;;;93.80;87.03;;;11.90;78.70;;;;;;6207094;23;20020;-89
2023/07/27 02:59:58;;;;;;;92.40;86.10;;;11.90;78.70;;;;;;6192720;23;20019;-89
2023/07/27 03:02:26;;;;;;;93.75;86.97;;;11.90;78.80;;;;;;6176273;22;20014;-89
2023/07/27 03:04:54;;;;;;;96.97;90.00;;;11.80;78.80;;;;;;6191359;23;20016;-88
2023/07/27 03:07:22;;;;;;;80.97;75.40;;;11.80;78.90;;;;;;6158060;22;20012;-89
2023/07/27 03:09:51;;;;;;;69.93;64.88;;;11.80;78.90;;;;;;6191721;23;20537;-89
2023/07/27 03:12:17;;;;;;;96.90;89.82;;;11.80;79.00;;;;;;6215047;22;20510;-89
2023/07/27 03:14:45;;;;;;;74.70;69.30;;;11.80;79.00;;;;;;6216506;23;20044;-89
2023/07/27 03:17:13;;;;;;;87.13;80.50;;;11.70;79.00;;;;;;6182186;22;20016;-88
2023/07/27 03:19:39;;;;;;;87.53;81.38;;;11.80;79.10;;;;;;6216179;23;20075;-89
2023/07/27 03:22:05;;;;;;;85.95;79.57;;;11.90;79.00;;;;;;6214828;22;20589;-89
2023/07/27 03:24:31;;;;;;;97.85;91.22;;;11.90;79.10;;;;;;6216486;23;20062;-89
2023/07/27 03:26:57;;;;;;;79.88;74.03;;;11.90;79.10;;;;;;6183008;23;20012;-90
2023/07/27 03:29:23;;;;;;;93.50;86.80;;;11.90;79.10;;;;;;6190216;23;20038;-89
2023/07/27 03:31:49;;;;;;;97.50;90.25;;;11.90;79.00;;;;;;6191473;23;20020;-89
2023/07/27 03:34:17;;;;;;;71.95;66.50;;;11.90;79.00;;;;;;6189108;23;20016;-89
2023/07/27 03:36:45;;;;;;;94.78;88.15;;;12.00;79.00;;;;;;6209731;23;20174;-89
2023/07/27 03:39:13;;;;;;;114.13;106.50;;;12.00;79.00;;;;;;6190347;23;20505;-89
2023/07/27 03:41:42;;;;;;;114.63;106.85;;;12.10;79.00;;;;;;6216033;23;20107;-89
2023/07/27 03:44:11;;;;;;;106.88;99.43;;;12.10;79.00;;;;;;6164648;23;20031;-89
2023/07/27 03:46:37;;;;;;;115.80;107.70;;;12.20;79.00;;;;;;6210068;23;20582;-89
2023/07/27 03:49:05;;;;;;;124.65;116.05;;;12.20;78.90;;;;;;6187489;23;20030;-88
2023/07/27 03:51:34;;;;;;;121.97;113.38;;;12.30;78.90;;;;;;6166271;23;20023;-89
2023/07/27 03:54:00;;;;;;;112.30;104.50;;;12.30;78.90;;;;;;6189376;23;20020;-90
2023/07/27 03:56:28;;;;;;;135.55;126.07;;;12.30;78.90;;;;;;6212193;23;20092;-89
2023/07/27 03:58:56;;;;;;;136.18;127.10;;;12.30;78.90;;;;;;6160852;23;20028;-90
2023/07/27 04:01:25;;;;;;;127.70;119.43;;;12.50;78.80;;;;;;6190937;23;20330;-89
2023/07/27 04:03:51;;;;;;;115.10;107.13;;;12.50;78.60;;;;;;6175244;23;20692;-88
2023/07/27 04:06:19;;;;;;;134.43;125.18;;;12.50;78.70;;;;;;6188909;23;20048;-88
2023/07/27 04:08:48;;;;;;;118.15;110.00;;;12.50;78.30;;;;;;6159169;23;20027;-89
2023/07/27 04:11:16;;;;;;;177.55;166.25;;;12.50;78.20;;;;;;6191183;23;20022;-88
2023/07/27 04:13:45;;;;;;;154.13;144.07;;;12.60;78.30;;;;;;6188397;23;20538;-88
2023/07/27 04:16:11;;;;;;;150.25;139.93;;;12.70;78.10;;;;;;6214602;23;20008;-88
2023/07/27 04:18:39;;;;;;;149.48;139.75;;;12.70;78.10;;;;;;6207196;23;20114;-88
2023/07/27 04:21:07;;;;;;;154.07;144.10;;;12.70;78.00;;;;;;6166239;23;20016;-88
2023/07/27 04:23:36;;;;;;;171.75;160.38;;;12.70;78.00;;;;;;6164114;23;20163;-89
2023/07/27 04:26:04;;;;;;;185.60;173.52;;;12.70;78.20;;;;;;6165966;23;20019;-88
2023/07/27 04:28:32;;;;;;;160.30;149.80;;;12.80;78.30;;;;;;6166032;23;20092;-88
2023/07/27 04:30:58;;;;;;;164.82;154.32;;;12.70;78.30;;;;;;6166618;23;20016;-88
2023/07/27 04:33:26;;;;;;;184.15;172.07;;;12.80;78.30;;;;;;6188004;23;20023;-88
2023/07/27 04:35:59;;;;;;;202.68;189.50;;;12.70;78.40;;;;;;6190325;23;20047;-88
2023/07/27 04:38:25;;;;;;;176.48;164.45;;;12.80;78.40;;;;;;6182279;23;20027;-89
2023/07/27 04:40:53;;;;;;;181.40;170.25;;;12.70;78.60;;;;;;6166395;23;20016;-88
2023/07/27 04:43:19;;;;;;;214.65;201.15;;;12.80;78.60;;;;;;6188273;23;20123;-88
2023/07/27 04:45:48;;;;;;;228.95;213.93;;;12.70;78.80;;;;;;6215272;23;20031;-88
2023/07/27 04:48:14;;;;;;;199.40;186.13;;;12.70;78.90;;;;;;6180466;23;20020;-88
2023/07/27 04:50:39;;;;;;;224.18;209.23;;;12.70;79.00;;;;;;6191153;23;20016;-89
2023/07/27 04:53:05;;;;;;;238.32;222.63;;;12.70;79.00;;;;;;6163631;23;20012;-88
2023/07/27 04:55:31;;;;;;;225.43;209.95;;;12.70;79.10;;;;;;6140605;23;20099;-88
2023/07/27 04:57:57;;;;;;;255.82;240.23;;;12.70;79.20;;;;;;6151559;23;20012;-88
2023/07/27 05:00:23;;;;;;;253.80;236.30;;;12.70;79.30;;;;;;6159926;23;20099;-88
2023/07/27 05:02:49;;;;;;;245.45;229.15;;;12.70;79.50;;;;;;6185536;23;20550;-88
2023/07/27 05:05:17;;;;;;;243.52;227.20;;;12.70;79.60;;;;;;6166827;23;20044;-88
2023/07/27 05:07:45;;;;;;;268.98;250.82;;;12.70;79.80;;;;;;6147775;23;20515;-88
2023/07/27 05:10:14;;;;;;;269.35;251.27;;;12.70;79.80;;;;;;6132186;23;20090;-88
2023/07/27 05:12:42;;;;;;;261.65;243.43;;;12.70;80.00;;;;;;6158515;23;20020;-88
2023/07/27 05:15:09;;;;;;;235.70;219.65;;;12.70;80.10;;;;;;6160153;23;20017;-89
2023/07/27 05:17:42;;;;;;;240.30;223.48;;;12.70;80.30;;;;;;6132876;23;20031;-87
2023/07/27 05:20:08;;;;;;;293.35;273.02;;;12.70;80.50;;;;;;6190564;23;20016;-88
2023/07/27 05:22:34;;;;;;;287.45;268.02;;;12.70;80.80;;;;;;6164220;23;20066;-88
2023/07/27 05:25:00;;;;;;;300.65;280.20;;;12.70;81.00;;;;;;6190322;23;20443;-89
2023/07/27 05:27:29;;;;;;;295.35;274.83;;;12.70;81.20;;;;;;6166497;22;20032;-89
2023/07/27 05:29:57;;;;;;;377.23;350.02;;;12.70;81.50;;;;;;6190622;23;20023;-89
2023/07/27 05:32:26;;;;;;;279.77;260.13;;;12.70;81.60;;;;;;6173856;22;20014;-88
2023/07/27 05:34:51;;;;;;;304.67;282.98;;;12.70;81.60;;;;;;6189783;23;20103;-89
2023/07/27 05:37:20;;;;;;;290.92;271.05;;;12.80;81.80;;;;;;6183604;23;20458;-89
2023/07/27 05:39:48;;;;;;;328.77;305.67;;;12.80;82.00;;;;;;6165348;23;20024;-87
2023/07/27 05:42:17;;;;;;;271.55;254.02;;;12.80;82.10;;;;;;6189558;22;20103;-89
2023/07/27 05:44:45;;;;;;;286.90;268.38;;;12.90;82.30;;;;;;6215572;23;20016;-88
2023/07/27 05:47:11;;;;;;;302.45;282.98;;;12.90;82.10;;;;;;6156627;22;20430;-89
2023/07/27 05:49:40;;;;;;;302.17;281.48;;;12.90;82.50;;;;;;6214344;23;20026;-89
2023/07/27 05:52:09;;;;;;;311.98;292.00;;;12.90;82.40;;;;;;6200080;22;20066;-89
2023/07/27 05:54:37;;;;;;;305.02;285.27;;;12.90;82.40;;;;;;6189186;23;20077;-89
2023/07/27 05:57:03;;;;;;;303.77;284.27;;;12.90;82.40;;;;;;6151715;22;20015;-89
2023/07/27 05:59:31;;;;;;;313.92;293.05;;;12.90;82.50;;;;;;6189431;23;20032;-89
2023/07/27 06:02:00;;;;;;;325.65;305.23;;;12.90;82.50;;;;;;6190328;23;20016;-91
2023/07/27 06:04:29;;;;;;;332.92;311.98;;;12.90;82.60;;;;;;6213245;23;20024;-90
2023/07/27 06:06:55;;;;;;;317.40;297.02;;;12.90;82.60;;;;;;6176962;23;20016;-91
2023/07/27 06:09:23;;;;;;;328.83;306.63;;;12.90;82.70;;;;;;6187238;23;20016;-88
2023/07/27 06:11:51;;;;;;;303.80;284.40;;;12.90;82.70;;;;;;6214885;23;20055;-88
2023/07/27 06:14:20;;;;;;;323.77;303.17;;;13.00;82.80;;;;;;6187823;23;20135;-88
2023/07/27 06:16:46;;;;;;;313.05;292.90;;;13.00;82.80;;;;;;6182339;23;20704;-89
2023/07/27 06:19:11;;;;;;;313.05;293.17;;;13.00;83.00;;;;;;6209729;23;20016;-89
2023/07/27 06:21:37;;;;;;;384.15;359.30;;;13.00;82.90;;;;;;6215134;23;20443;-89
2023/07/27 06:24:03;;;;;;;377.27;352.17;;;13.00;83.10;;;;;;6187189;23;20034;-89
2023/07/27 06:26:29;;;;;;;399.00;372.48;;;13.10;83.10;;;;;;6183345;23;20099;-90
2023/07/27 06:28:55;;;;;;;353.05;331.10;;;13.10;83.30;;;;;;6210306;23;20020;-89
2023/07/27 06:31:23;;;;;;;396.75;371.42;;;13.10;83.30;;;;;;6214730;23;20486;-89
2023/07/27 06:33:52;;;;;;;348.75;326.98;;;13.10;83.30;;;;;;6200149;23;20023;-89
2023/07/27 06:36:19;;;;;;;378.73;354.52;;;13.20;83.20;;;;;;6186926;23;20446;-90
2023/07/27 06:38:47;;;;;;;425.65;398.52;;;13.30;83.30;;;;;;6160741;23;20051;-89
2023/07/27 06:41:13;;;;;;;431.67;403.85;;;13.40;83.40;;;;;;6189746;23;20024;-88
2023/07/27 06:43:42;;;;;;;425.65;398.27;;;13.50;83.50;;;;;;6187518;23;20031;-88
2023/07/27 06:46:10;;;;;;;432.05;404.17;;;13.50;83.30;;;;;;6213449;23;20023;-90
2023/07/27 06:48:38;;;;;;;424.30;396.60;;;13.60;83.20;;;;;;6131173;23;20095;-88
2023/07/27 06:51:04;;;;;;;376.70;353.73;;;13.80;83.20;;;;;;6214120;23;20099;-88
2023/07/27 06:53:37;;;;;;;380.55;356.92;;;13.80;82.80;;;;;;6198428;23;20040;-89
2023/07/27 06:56:04;;;;;;;438.63;410.77;;;13.90;82.80;;;;;;6188992;23;20686;-89
2023/07/27 06:58:30;;;;;;;371.73;348.65;;;13.90;82.90;;;;;;6162621;23;20108;-90
2023/07/27 07:00:56;;;;;;;381.23;357.45;;;13.90;82.60;;;;;;6173076;23;20697;-89
2023/07/27 07:03:25;;;;;;;382.95;359.70;;;13.90;82.70;;;;;;6171528;23;20031;-89
2023/07/27 07:05:54;;;;;;;362.50;340.08;;;14.00;82.50;;;;;;6174818;23;20346;-89
2023/07/27 07:08:23;;;;;;;388.58;364.63;;;14.00;82.50;;;;;;6142434;23;20024;-89
2023/07/27 07:10:49;;;;;;;396.85;372.17;;;14.00;82.60;;;;;;6175162;23;20034;-90
2023/07/27 07:13:17;;;;;;;379.52;356.27;;;14.00;82.30;;;;;;6173702;23;20039;-90
2023/07/27 07:15:45;;;;;;;380.88;357.02;;;14.10;82.40;;;;;;6174132;23;20023;-89
2023/07/27 07:18:14;;;;;;;372.27;349.27;;;14.10;82.50;;;;;;6167288;23;20017;-91
2023/07/27 07:20:40;;;;;;;412.05;385.90;;;14.10;82.30;;;;;;6174360;23;20119;-90
2023/07/27 07:23:09;;;;;;;393.40;368.88;;;14.20;82.50;;;;;;6176175;23;20022;-91
2023/07/27 07:25:40;;;;;;;394.48;370.05;;;14.20;82.40;;;;;;6126565;23;20055;-91
2023/07/27 07:28:06;;;;;;;406.30;380.90;;;14.20;82.40;;;;;;6193310;23;20073;-91
2023/07/27 07:30:32;;;;;;;432.42;405.38;;;14.30;82.40;;;;;;6176527;23;20045;-89
2023/07/27 07:33:01;;;;;;;432.98;405.77;;;14.20;82.40;;;;;;6148037;23;20082;-91
2023/07/27 07:35:29;;;;;;;396.55;371.90;;;14.30;82.30;;;;;;6149624;23;20044;-91
2023/07/27 07:37:55;;;;;;;434.60;407.65;;;14.20;82.30;;;;;;6144072;23;20034;-91
2023/07/27 07:40:24;;;;;;;418.75;392.20;;;14.30;82.30;;;;;;6172367;23;20016;-91
2023/07/27 07:42:53;;;;;;;475.83;444.35;;;14.30;82.50;;;;;;6169789;23;20082;-90
2023/07/27 07:45:19;;;;;;;393.38;369.33;;;14.30;82.40;;;;;;6172466;23;20639;-91
2023/07/27 07:47:45;;;;;;;396.95;372.33;;;14.30;82.10;;;;;;6166356;23;20091;-91
2023/07/27 07:50:13;;;;;;;405.70;380.15;;;14.40;82.20;;;;;;6171426;23;20024;-92
2023/07/27 07:52:39;;;;;;;403.20;377.25;;;14.40;82.40;;;;;;6173508;23;20525;-92
2023/07/27 07:55:06;;;;;;;406.48;380.83;;;14.40;82.10;;;;;;6173633;23;20020;-92
2023/07/27 07:57:33;;;;;;;431.98;405.38;;;14.40;82.20;;;;;;6127812;23;20121;-91
2023/07/27 07:59:58;;;;;;;381.45;357.83;;;14.40;82.10;;;;;;6173211;23;20031;-92
2023/07/27 08:02:27;;;;;;;407.38;381.98;;;14.40;82.20;;;;;;6148004;22;20016;-91
2023/07/27 08:04:53;;;;;;;400.58;375.35;;;14.50;82.30;;;;;;6149537;23;20023;-90
2023/07/27 08:07:19;;;;;;;420.70;394.23;;;14.50;82.50;;;;;;6153165;22;20111;-90
2023/07/27 08:10:38;;;;;;;406.27;380.00;;;14.60;82.50;;;;;;6200775;23;20490;-93
2023/07/27 08:13:24;;;;;;;441.60;413.85;;;14.60;82.40;;;;;;6186976;23;20024;-92
2023/07/27 08:15:54;;;;;;;413.92;388.20;;;14.60;82.20;;;;;;6174774;23;20016;-91
2023/07/27 08:18:20;;;;;;;424.58;398.15;;;14.70;82.30;;;;;;6151882;22;20023;-91
2023/07/27 08:21:06;;;;;;;457.77;427.27;;;14.70;82.30;;;;;;6183512;23;20024;-91
2023/07/27 08:23:32;;;;;;;384.75;360.48;;;14.80;82.10;;;;;;6159325;23;20864;-90
2023/07/27 08:26:00;;;;;;;411.83;385.55;;;14.80;82.10;;;;;;6173141;23;20834;-92
2023/07/27 08:28:29;;;;;;;425.10;396.70;;;14.80;82.20;;;;;;6169813;23;20077;-92
2023/07/27 08:31:02;;;;;;;424.70;397.38;;;14.90;82.30;;;;;;6174210;23;20104;-92
2023/07/27 08:33:34;;;;;;;417.02;390.17;;;14.90;82.40;;;;;;6159868;23;20020;-92
2023/07/27 08:36:23;;;;;;;400.02;374.33;;;15.00;82.50;;;;;;6175280;23;20023;-93
2023/07/27 08:39:02;;;;;;;;;;;;;;;;;;;;;
2023/07/27 08:41:28;;;;;;;417.33;390.83;;;15.00;81.90;;;;;;6179182;23;20023;-91
2023/07/27 08:44:04;;;;;;;410.50;384.35;;;15.00;82.00;;;;;;6136874;23;20537;-92
2023/07/27 08:46:30;;;;;;;415.58;389.13;;;15.00;81.90;;;;;;6120462;23;20027;-92
2023/07/27 08:49:17;;;;;;;395.70;371.23;;;15.00;81.60;;;;;;6154238;23;20016;-92
2023/07/27 08:51:44;;;;;;;416.45;389.98;;;15.10;81.50;;;;;;6145664;23;20481;-91
2023/07/27 08:54:10;;;;;;;425.38;398.60;;;15.10;81.50;;;;;;6155242;23;20020;-90
2023/07/27 08:56:38;;;;;;;403.25;377.85;;;15.20;81.70;;;;;;6169825;23;20012;-90
2023/07/27 08:59:05;;;;;;;421.23;393.83;;;15.20;81.70;;;;;;6147541;23;20032;-92
2023/07/27 09:01:34;;;;;;;427.27;399.60;;;15.20;81.60;;;;;;6173893;23;20115;-91
2023/07/27 09:04:03;;;;;;;423.05;396.23;;;15.30;81.80;;;;;;6159183;23;20031;-90
2023/07/27 09:06:52;;;;;;;436.35;408.77;;;15.40;81.60;;;;;;6170412;23;20485;-91
2023/07/27 09:09:25;;;;;;;406.92;381.52;;;15.40;81.60;;;;;;6146128;23;20104;-91
2023/07/27 09:11:51;;;;;;;432.17;404.77;;;15.50;81.50;;;;;;6139578;23;20044;-90
2023/07/27 09:14:19;;;;;;;443.65;414.83;;;15.50;81.30;;;;;;6121625;23;20028;-92
2023/07/27 09:16:56;;;;;;;467.35;435.75;;;15.60;81.30;;;;;;6110142;23;20021;-91
2023/07/27 09:19:23;;;;;;;460.08;428.98;;;15.60;81.50;;;;;;6164901;23;20078;-91
2023/07/27 09:21:50;;;;;;;432.90;404.90;;;15.60;81.20;;;;;;6169169;23;20052;-90
2023/07/27 09:24:23;;;;;;;445.15;415.63;;;15.60;81.10;;;;;;6154722;23;20032;-91
2023/07/27 09:26:51;;;;;;;465.30;434.05;;;15.60;81.20;;;;;;6163365;23;20370;-91
2023/07/27 09:29:40;;;;;;;466.17;434.55;;;15.60;81.30;;;;;;6172086;23;21073;-92
2023/07/27 09:32:08;;;;;;;452.92;422.60;;;15.60;81.50;;;;;;6155981;22;20120;-92
2023/07/27 09:34:34;;;;;;;460.27;429.42;;;15.70;81.50;;;;;;6167008;23;20020;-91
2023/07/27 09:37:06;;;;;;;457.85;427.55;;;15.60;81.40;;;;;;6137429;23;20722;-91
2023/07/27 09:39:37;;;;;;;438.80;409.73;;;15.60;81.40;;;;;;6167285;23;20028;-91
2023/07/27 09:42:14;;;;;;;;;;;15.60;81.60;;;;;;6159777;22;20090;-91
2023/07/27 09:44:50;;;;;;;401.80;377.17;;;15.60;81.80;;;;;;6138288;23;19916;-90
2023/07/27 09:47:23;;;;;;;423.15;396.30;;;15.70;81.80;;;;;;6116682;23;20049;-89
2023/07/27 09:50:02;;;;;;;431.58;403.98;;;15.70;81.80;;;;;;6122201;23;20028;-91
2023/07/27 09:52:29;;;;;;;472.40;441.35;;;15.70;81.70;;;;;;6127281;23;20556;-91
2023/07/27 09:55:05;;;;;;;472.80;441.75;;;15.60;81.60;;;;;;6140258;23;20017;-91
2023/07/27 09:57:31;;;;;;;469.13;437.73;;;15.60;81.80;;;;;;6108236;23;20021;-90
2023/07/27 10:00:17;;;;;;;473.23;439.60;;;15.60;82.00;;;;;;6139062;23;20523;-92
2023/07/27 10:02:43;;;;;;;466.50;434.67;;;15.60;82.30;;;;;;6114047;23;20116;-91
2023/07/27 10:05:11;;;;;;;473.58;441.27;;;15.60;82.30;;;;;;6114351;23;20115;-91
2023/07/27 10:07:37;;;;;;;497.17;463.73;;;15.70;82.30;;;;;;6108836;23;20717;-90
2023/07/27 10:10:39;;;;;;;478.80;445.40;;;15.70;82.30;;;;;;6139992;23;20017;-91
2023/07/27 10:16:28;;;;;;;439.55;410.75;;;15.80;82.50;;;;;;6122888;23;20036;-91
2023/07/27 10:18:55;;;;;;;479.63;446.88;;;15.80;82.70;;;;;;6139043;23;20063;-91
2023/07/27 10:21:20;;;;;;;505.15;468.63;;;15.80;82.90;;;;;;6118219;23;20049;-92
2023/07/27 10:23:57;;;;;;;493.63;457.98;;;15.80;82.60;;;;;;6175261;23;20118;-91
2023/07/27 10:26:46;;;;;;;489.75;455.58;;;15.80;82.80;;;;;;6195020;23;20509;-91
2023/07/27 10:29:27;;;;;;;480.52;447.88;;;15.80;83.00;;;;;;6120028;23;20024;-92
2023/07/27 10:32:05;;;;;;;493.58;458.98;;;15.80;83.00;;;;;;6141376;23;20017;-90
2023/07/27 10:34:43;;;;;;;503.50;468.10;;;15.80;83.30;;;;;;6163631;23;20032;-89
2023/07/27 10:37:15;;;;;;;504.60;470.13;;;15.80;83.30;;;;;;6156098;23;20630;-90
2023/07/27 10:39:47;;;;;;;474.50;441.75;;;15.80;83.50;;;;;;6138341;23;20013;-90
2023/07/27 10:42:49;;;;;;;517.47;480.10;;;15.90;83.30;;;;;;6122611;23;20128;-92
2023/07/27 10:45:24;;;;;;;493.80;459.27;;;15.90;83.40;;;;;;6114943;23;20027;-91
2023/07/27 10:47:55;;;;;;;504.80;469.35;;;16.00;83.60;;;;;;6142021;23;20325;-90
2023/07/27 10:50:21;;;;;;;538.88;497.38;;;16.00;83.70;;;;;;6168658;23;20025;-90
2023/07/27 10:52:52;;;;;;;560.35;518.38;;;16.00;83.70;;;;;;6157220;23;20028;-90
2023/07/27 10:55:19;;;;;;;534.15;493.60;;;16.00;83.60;;;;;;6169340;23;20020;-90
2023/07/27 10:57:47;;;;;;;524.58;486.38;;;16.00;83.50;;;;;;6187018;23;20585;-90
2023/07/27 11:00:13;;;;;;;565.38;521.58;;;16.00;83.60;;;;;;6165631;23;20123;-91
2023/07/27 11:02:42;;;;;;;521.67;484.70;;;15.90;83.50;;;;;;6166750;23;20142;-90
2023/07/27 11:05:09;;;;;;;550.58;509.23;;;15.80;83.40;;;;;;6168514;23;20025;-90
2023/07/27 11:07:46;;;;;;;508.65;471.58;;;15.80;83.50;;;;;;6185993;23;20020;-91
2023/07/27 11:10:15;;;;;;;542.22;500.45;;;15.80;83.50;;;;;;6168472;23;20690;-90
2023/07/27 11:12:54;;;;;;;512.88;477.00;;;15.80;83.60;;;;;;6192179;23;20021;-90
2023/07/27 11:15:26;;;;;;;490.73;457.00;;;15.70;83.60;;;;;;6193129;23;20020;-90
2023/07/27 11:17:54;;;;;;;544.50;502.90;;;15.70;83.60;;;;;;6175771;22;20016;-90
2023/07/27 11:20:22;;;;;;;526.63;488.27;;;15.70;83.70;;;;;;6167812;23;20440;-90
2023/07/27 11:22:49;;;;;;;529.03;489.85;;;15.60;83.90;;;;;;6192511;23;20021;-91
2023/07/27 11:25:15;;;;;;;529.13;489.73;;;15.70;84.00;;;;;;6184126;23;20360;-91
2023/07/27 11:27:41;;;;;;;613.03;560.00;;;15.80;84.20;;;;;;6183677;23;20295;-91
2023/07/27 11:30:12;;;;;;;512.75;476.65;;;15.80;84.40;;;;;;6162373;23;20843;-91
2023/07/27 11:32:40;;;;;;;501.85;466.77;;;15.80;84.30;;;;;;6159341;23;20025;-91
2023/07/27 11:35:07;;;;;;;590.65;547.70;;;15.80;84.40;;;;;;6160633;23;20848;-92
2023/07/27 11:37:32;;;;;;;525.38;488.02;;;15.80;84.60;;;;;;6181534;23;20028;-91
2023/07/27 11:39:58;;;;;;;559.40;517.20;;;15.90;84.40;;;;;;6185233;23;20013;-91
2023/07/27 11:42:35;;;;;;;515.25;479.10;;;16.00;84.40;;;;;;6147732;22;20555;-90
2023/07/27 11:45:05;;;;;;;532.30;493.58;;;16.00;84.50;;;;;;6182891;23;20537;-90
2023/07/27 11:47:52;;;;;;;560.88;520.40;;;16.00;84.40;;;;;;6155101;23;20111;-91
2023/07/27 11:50:18;;;;;;;513.92;477.17;;;16.00;84.40;;;;;;6160579;23;20239;-91
2023/07/27 11:52:44;;;;;;;544.92;505.48;;;16.00;84.50;;;;;;6158052;22;20025;-92
2023/07/27 11:55:15;;;;;;;540.00;501.05;;;16.10;84.40;;;;;;6157846;23;20021;-91
2023/07/27 11:57:41;;;;;;;;;;;16.10;84.50;;;;;;6154914;23;20115;-91
2023/07/27 12:00:14;;;;;;;482.73;450.45;;;16.10;84.70;;;;;;6160017;23;19915;-92
2023/07/27 12:03:16;;;;;;;518.97;482.23;;;16.10;84.70;;;;;;6158979;23;20020;-93
2023/07/27 12:05:42;;;;;;;544.00;505.08;;;16.10;84.60;;;;;;6159859;23;20016;-92
2023/07/27 12:08:10;;;;;;;523.47;485.10;;;16.10;84.70;;;;;;6172361;22;20020;-92
2023/07/27 12:10:39;;;;;;;544.53;505.40;;;16.20;84.70;;;;;;6161777;23;20630;-92
2023/07/27 12:13:07;;;;;;;591.97;545.80;;;16.20;84.70;;;;;;6149986;23;20791;-91
2023/07/27 12:15:46;;;;;;;600.63;552.03;;;16.20;84.80;;;;;;6184169;23;20416;-91
2023/07/27 12:18:14;;;;;;;546.60;507.17;;;16.30;85.00;;;;;;6134635;23;20186;-91
2023/07/27 12:26:45;;;;;;;534.63;495.27;;;16.40;85.00;;;;;;6115000;23;20026;-94
2023/07/27 12:29:11;;;;;;;551.55;509.52;;;16.50;85.00;;;;;;6128467;23;20042;-93
2023/07/27 12:31:40;;;;;;;588.30;541.72;;;16.50;85.10;;;;;;6159232;23;20023;-93
2023/07/27 12:34:32;;;;;;;553.92;512.60;;;16.60;85.00;;;;;;6155722;23;20024;-93
2023/07/27 12:37:10;;;;;;;;;;;;;;;;;;;;;
2023/07/27 12:39:50;;;;;;;658.67;605.10;;;16.90;85.50;;;;;;6184167;23;20514;-93